createdAt,value
2023-05-03T00:01:14.128Z,8.74
2023-05-03T00:03:40.601Z,8.64
2023-05-03T00:06:14.693Z,8.50
2023-05-03T00:08:41.520Z,8.45
2023-05-03T00:11:08.838Z,8.51
2023-05-03T00:13:35.592Z,8.39
2023-05-03T00:16:02.067Z,8.37
2023-05-03T00:18:29.211Z,8.39
2023-05-03T00:20:55.662Z,8.28
2023-05-03T00:23:22.199Z,8.17
2023-05-03T00:25:58.820Z,8.17
2023-05-03T00:28:26.217Z,8.32
2023-05-03T00:30:53.304Z,8.19
2023-05-03T00:33:19.743Z,8.19
2023-05-03T00:35:46.257Z,8.22
2023-05-03T00:38:14.316Z,8.29
2023-05-03T00:40:40.970Z,8.29
2023-05-03T00:43:07.764Z,8.24
2023-05-03T00:45:34.881Z,8.25
2023-05-03T00:48:01.786Z,8.41
2023-05-03T00:50:28.976Z,8.28
2023-05-03T00:52:55.923Z,8.29
2023-05-03T00:55:22.841Z,8.40
2023-05-03T00:57:49.355Z,8.43
2023-05-03T01:00:16.594Z,8.33
2023-05-03T01:02:43.127Z,8.37
2023-05-03T01:05:10.929Z,8.45
2023-05-03T01:07:53.447Z,8.42
2023-05-03T01:10:27.898Z,8.42
2023-05-03T01:13:23.127Z,8.41
2023-05-03T01:16:01.682Z,8.34
2023-05-03T01:18:32.330Z,8.35
2023-05-03T01:21:00.188Z,8.37
2023-05-03T01:24:02.744Z,8.25
2023-05-03T01:26:29.053Z,8.12
2023-05-03T01:28:55.853Z,8.03
2023-05-03T01:31:52.635Z,8.00
2023-05-03T01:34:50.811Z,7.96
2023-05-03T01:37:18.419Z,7.86
2023-05-03T01:39:48.891Z,7.80
2023-05-03T01:42:15.851Z,7.80
2023-05-03T01:44:43.635Z,7.86
2023-05-03T01:47:10.479Z,7.87
2023-05-03T01:49:36.784Z,7.73
2023-05-03T01:52:03.281Z,7.81
2023-05-03T01:54:29.845Z,7.86
2023-05-03T01:56:56.407Z,7.86
2023-05-03T01:59:22.908Z,7.83
2023-05-03T02:01:49.306Z,7.77
2023-05-03T02:04:15.754Z,7.74
2023-05-03T02:06:42.402Z,7.77
2023-05-03T02:09:09.084Z,7.76
2023-05-03T02:11:35.447Z,7.67
2023-05-03T02:14:01.874Z,7.62
2023-05-03T02:16:29.195Z,7.51
2023-05-03T02:18:59.834Z,7.43
2023-05-03T02:21:27.014Z,7.45
2023-05-03T02:23:54.177Z,7.46
2023-05-03T02:26:20.980Z,7.39
2023-05-03T02:28:47.346Z,7.34
2023-05-03T02:31:13.775Z,7.33
2023-05-03T02:33:40.163Z,7.24
2023-05-03T02:36:06.948Z,7.24
2023-05-03T02:38:33.394Z,7.12
2023-05-03T02:40:59.875Z,6.99
2023-05-03T02:43:26.285Z,6.94
2023-05-03T02:45:52.642Z,6.87
2023-05-03T02:48:19.135Z,6.74
2023-05-03T02:50:45.761Z,6.62
2023-05-03T02:53:12.455Z,6.54
2023-05-03T02:55:39.814Z,6.48
2023-05-03T02:58:06.350Z,6.37
2023-05-03T03:00:32.723Z,6.34
2023-05-03T03:02:59.351Z,6.28
2023-05-03T03:05:25.912Z,6.18
2023-05-03T03:07:52.227Z,6.19
2023-05-03T03:10:18.844Z,6.15
2023-05-03T03:12:45.869Z,6.11
2023-05-03T03:15:13.363Z,6.17
2023-05-03T03:17:39.807Z,6.24
2023-05-03T03:20:07.714Z,6.20
2023-05-03T03:22:34.201Z,6.13
2023-05-03T03:25:00.529Z,6.09
2023-05-03T03:27:26.823Z,6.03
2023-05-03T03:29:53.268Z,5.90
2023-05-03T03:32:19.626Z,5.83
2023-05-03T03:34:45.978Z,5.79
2023-05-03T03:37:12.473Z,5.75
2023-05-03T03:39:40.102Z,5.76
2023-05-03T03:42:07.881Z,5.63
2023-05-03T03:44:34.329Z,5.70
2023-05-03T03:47:00.802Z,5.73
2023-05-03T03:49:27.189Z,5.75
2023-05-03T03:51:53.590Z,5.78
2023-05-03T03:54:19.938Z,5.72
2023-05-03T03:56:46.282Z,5.74
2023-05-03T03:59:12.771Z,5.69
2023-05-03T04:01:39.206Z,5.64
2023-05-03T04:04:05.786Z,5.59
2023-05-03T04:06:33.192Z,5.58
2023-05-03T04:08:59.589Z,5.55
2023-05-03T04:11:26.235Z,5.48
2023-05-03T04:13:52.805Z,5.44
2023-05-03T04:16:19.281Z,5.38
2023-05-03T04:18:45.680Z,5.36
2023-05-03T04:21:12.094Z,5.32
2023-05-03T04:23:39.301Z,5.29
2023-05-03T04:26:05.877Z,5.36
2023-05-03T04:28:32.946Z,5.44
2023-05-03T04:30:59.364Z,5.42
2023-05-03T04:33:25.948Z,5.40
2023-05-03T04:35:53.956Z,5.36
2023-05-03T04:38:20.488Z,5.30
2023-05-03T04:40:47.248Z,5.28
2023-05-03T04:43:13.690Z,5.26
2023-05-03T04:45:40.936Z,5.43
2023-05-03T04:48:07.968Z,5.54
2023-05-03T04:50:34.442Z,5.43
2023-05-03T04:53:01.145Z,5.41
2023-05-03T04:55:27.702Z,5.46
2023-05-03T04:57:56.254Z,5.46
2023-05-03T05:00:23.606Z,5.47
2023-05-03T05:02:50.918Z,5.54
2023-05-03T05:05:18.238Z,5.60
2023-05-03T05:07:46.596Z,5.69
2023-05-03T05:10:14.480Z,5.73
2023-05-03T05:12:41.003Z,5.82
2023-05-03T05:15:07.802Z,5.99
2023-05-03T05:17:34.493Z,6.03
2023-05-03T05:20:01.335Z,6.09
2023-05-03T05:22:27.964Z,6.13
2023-05-03T05:24:54.968Z,6.24
2023-05-03T05:27:21.387Z,6.30
2023-05-03T05:29:47.774Z,6.37
2023-05-03T05:32:14.225Z,6.46
2023-05-03T05:34:44.972Z,6.50
2023-05-03T05:37:12.476Z,6.62
2023-05-03T05:39:38.870Z,6.69
2023-05-03T05:42:05.485Z,6.84
2023-05-03T05:44:31.933Z,7.04
2023-05-03T05:46:58.518Z,7.16
2023-05-03T05:49:25.012Z,7.27
2023-05-03T05:51:51.357Z,7.44
2023-05-03T05:54:17.782Z,7.62
2023-05-03T05:56:44.132Z,7.75
2023-05-03T05:59:11.143Z,7.80
2023-05-03T06:01:41.696Z,7.85
2023-05-03T06:04:08.626Z,8.03
2023-05-03T06:06:35.130Z,8.17
2023-05-03T06:09:09.855Z,8.33
2023-05-03T06:11:43.592Z,8.43
2023-05-03T06:14:10.202Z,8.54
2023-05-03T06:16:37.376Z,8.64
2023-05-03T06:19:05.022Z,8.76
2023-05-03T06:21:31.889Z,8.90
2023-05-03T06:23:58.387Z,9.00
2023-05-03T06:26:24.915Z,9.14
2023-05-03T06:28:52.477Z,9.18
2023-05-03T06:31:19.087Z,9.35
2023-05-03T06:33:46.051Z,9.38
2023-05-03T06:36:13.122Z,9.49
2023-05-03T06:38:40.088Z,9.65
2023-05-03T06:41:06.492Z,9.79
2023-05-03T06:43:33.140Z,9.87
2023-05-03T06:46:00.030Z,9.92
2023-05-03T06:48:27.887Z,9.91
2023-05-03T06:50:55.097Z,10.11
2023-05-03T06:53:21.566Z,10.21
2023-05-03T06:55:47.893Z,10.20
2023-05-03T06:58:14.633Z,10.20
2023-05-03T07:00:41.313Z,10.44
2023-05-03T07:03:07.946Z,10.63
2023-05-03T07:05:34.533Z,10.71
2023-05-03T07:08:01.178Z,10.76
2023-05-03T07:10:31.366Z,10.91
2023-05-03T07:12:58.186Z,10.82
2023-05-03T07:15:24.709Z,10.95
2023-05-03T07:17:51.168Z,11.04
2023-05-03T07:20:17.606Z,11.26
2023-05-03T07:22:44.626Z,11.34
2023-05-03T07:25:12.368Z,11.34
2023-05-03T07:27:38.886Z,11.50
2023-05-03T07:30:06.634Z,11.72
2023-05-03T07:32:33.239Z,11.86
2023-05-03T07:34:59.705Z,11.74
2023-05-03T07:37:27.530Z,11.87
2023-05-03T07:39:53.936Z,12.05
2023-05-03T07:42:20.545Z,12.06
2023-05-03T07:44:47.083Z,12.27
2023-05-03T07:47:13.509Z,12.37
2023-05-03T07:49:41.169Z,12.43
2023-05-03T07:52:07.640Z,12.78
2023-05-03T07:54:34.112Z,12.87
2023-05-03T07:57:00.773Z,12.45
2023-05-03T07:59:27.430Z,12.58
2023-05-03T08:01:53.860Z,12.44
2023-05-03T08:04:20.737Z,12.35
2023-05-03T08:06:47.695Z,12.41
2023-05-03T08:09:14.179Z,12.61
2023-05-03T08:11:43.173Z,12.96
2023-05-03T08:14:10.503Z,12.99
2023-05-03T08:16:36.954Z,13.18
2023-05-03T08:19:04.929Z,13.28
2023-05-03T08:21:33.291Z,13.49
2023-05-03T08:24:00.793Z,13.65
2023-05-03T08:26:28.682Z,13.65
2023-05-03T08:28:55.313Z,13.72
2023-05-03T08:31:21.814Z,13.88
2023-05-03T08:33:48.320Z,14.04
2023-05-03T08:36:14.907Z,14.15
2023-05-03T08:38:41.581Z,14.21
2023-05-03T08:41:26.163Z,14.37
2023-05-03T08:43:54.356Z,14.46
2023-05-03T08:46:21.131Z,14.51
2023-05-03T08:48:48.548Z,14.28
2023-05-03T08:51:16.970Z,14.33
2023-05-03T08:53:43.448Z,14.63
2023-05-03T08:56:10.895Z,14.31
2023-05-03T08:58:37.735Z,14.17
2023-05-03T09:01:08.838Z,14.15
2023-05-03T09:03:36.891Z,13.76
2023-05-03T09:06:18.488Z,13.85
2023-05-03T09:08:45.061Z,13.85
2023-05-03T09:11:21.406Z,14.38
2023-05-03T09:13:47.882Z,14.29
2023-05-03T09:16:29.409Z,14.65
2023-05-03T09:19:09.302Z,15.07
2023-05-03T09:21:36.295Z,15.10
2023-05-03T09:24:11.738Z,15.31
2023-05-03T09:26:39.601Z,15.52
2023-05-03T09:29:06.249Z,15.44
2023-05-03T09:31:35.149Z,15.38
2023-05-03T09:34:02.409Z,15.44
2023-05-03T09:36:44.572Z,15.43
2023-05-03T09:39:18.451Z,15.62
2023-05-03T09:41:44.991Z,15.60
2023-05-03T09:44:12.227Z,15.15
2023-05-03T09:46:38.867Z,15.63
2023-05-03T09:49:05.658Z,15.60
2023-05-03T09:51:32.295Z,15.72
2023-05-03T09:53:59.350Z,15.48
2023-05-03T09:56:29.098Z,14.97
2023-05-03T09:58:55.619Z,14.82
2023-05-03T10:01:24.863Z,15.25
2023-05-03T10:03:52.963Z,15.61
2023-05-03T10:06:30.149Z,16.03
2023-05-03T10:09:12.164Z,16.14
2023-05-03T10:11:38.640Z,16.15
2023-05-03T10:14:07.290Z,16.38
2023-05-03T10:16:38.794Z,16.70
2023-05-03T10:19:13.516Z,16.62
2023-05-03T10:22:06.613Z,16.16
2023-05-03T10:24:35.351Z,15.48
2023-05-03T10:27:02.890Z,15.38
2023-05-03T10:29:36.057Z,15.43
2023-05-03T10:32:04.134Z,15.79
2023-05-03T10:34:32.565Z,15.71
2023-05-03T10:37:02.476Z,15.97
2023-05-03T10:39:30.884Z,15.59
2023-05-03T10:41:59.846Z,15.92
2023-05-03T10:44:27.959Z,16.43
2023-05-03T10:46:54.839Z,16.74
2023-05-03T10:49:23.369Z,16.77
2023-05-03T10:51:50.480Z,16.17
2023-05-03T10:54:17.655Z,16.14
2023-05-03T10:56:51.919Z,16.19
2023-05-03T10:59:18.537Z,16.15
2023-05-03T11:01:47.222Z,15.89
2023-05-03T11:04:16.110Z,15.69
2023-05-03T11:06:42.645Z,15.51
2023-05-03T11:09:10.311Z,15.74
2023-05-03T11:11:39.867Z,15.81
2023-05-03T11:14:08.189Z,15.91
2023-05-03T11:16:36.714Z,15.90
2023-05-03T11:19:03.671Z,15.92
2023-05-03T11:21:31.371Z,15.70
2023-05-03T11:23:58.612Z,15.80
2023-05-03T11:26:26.508Z,15.84
2023-05-03T11:28:54.118Z,16.07
2023-05-03T11:31:21.112Z,16.08
2023-05-03T11:33:49.278Z,16.18
2023-05-03T11:36:16.218Z,16.29
2023-05-03T11:38:42.632Z,16.38
2023-05-03T11:41:15.009Z,16.57
2023-05-03T11:43:46.025Z,16.71
2023-05-03T11:46:24.831Z,16.92
2023-05-03T11:48:51.484Z,17.02
2023-05-03T11:51:24.726Z,16.85
2023-05-03T11:53:51.960Z,16.93
2023-05-03T11:56:20.495Z,17.07
2023-05-03T11:59:00.047Z,17.13
2023-05-03T12:01:28.663Z,17.02
2023-05-03T12:04:01.213Z,16.93
2023-05-03T12:06:32.179Z,17.07
2023-05-03T12:09:01.294Z,17.23
2023-05-03T12:11:30.873Z,17.23
2023-05-03T12:14:03.433Z,17.32
2023-05-03T12:16:50.850Z,17.40
2023-05-03T12:19:26.466Z,17.38
2023-05-03T12:22:09.437Z,17.48
2023-05-03T12:24:39.964Z,17.47
2023-05-03T12:27:08.692Z,17.45
2023-05-03T12:29:35.727Z,17.40
2023-05-03T12:32:04.314Z,17.49
2023-05-03T12:34:35.542Z,17.43
2023-05-03T12:37:05.765Z,17.45
2023-05-03T12:39:33.431Z,17.42
2023-05-03T12:44:31.722Z,17.63
2023-05-03T12:47:01.858Z,17.73
2023-05-03T12:49:28.794Z,17.66
2023-05-03T12:52:23.402Z,17.69
2023-05-03T12:54:48.827Z,17.66
2023-05-03T12:57:22.082Z,17.79
2023-05-03T12:59:56.202Z,17.80
2023-05-03T13:05:00.372Z,17.91
2023-05-03T13:07:30.430Z,17.89
2023-05-03T13:12:28.416Z,18.06
2023-05-03T13:14:55.401Z,18.12
2023-05-03T13:17:23.214Z,18.18
2023-05-03T13:19:51.333Z,18.28
2023-05-03T13:22:18.380Z,18.32
2023-05-03T13:24:46.575Z,18.50
2023-05-03T13:27:13.172Z,18.63
2023-05-03T13:29:40.018Z,18.79
2023-05-03T13:32:06.988Z,18.59
2023-05-03T13:34:34.108Z,18.57
2023-05-03T13:37:01.896Z,18.57
2023-05-03T13:39:28.371Z,18.73
2023-05-03T13:41:54.776Z,18.72
2023-05-03T13:44:25.140Z,18.93
2023-05-03T13:46:55.704Z,18.96
2023-05-03T13:49:22.365Z,19.13
2023-05-03T13:51:48.889Z,19.36
2023-05-03T13:54:15.430Z,19.39
2023-05-03T13:56:42.995Z,19.63
2023-05-03T13:59:12.388Z,19.45
2023-05-03T14:01:39.173Z,19.67
2023-05-03T14:04:06.019Z,19.89
2023-05-03T14:06:33.542Z,19.73
2023-05-03T14:09:01.682Z,19.59
2023-05-03T14:11:29.899Z,19.81
2023-05-03T14:13:57.973Z,19.96
2023-05-03T14:16:40.122Z,19.93
2023-05-03T14:19:07.522Z,20.14
2023-05-03T14:21:34.126Z,20.03
2023-05-03T14:24:01.066Z,20.17
2023-05-03T14:26:29.325Z,20.17
2023-05-03T14:28:56.084Z,20.17
2023-05-03T14:31:22.705Z,20.33
2023-05-03T14:33:49.359Z,20.19
2023-05-03T14:36:15.891Z,20.36
2023-05-03T14:38:42.284Z,20.32
2023-05-03T14:41:09.348Z,20.59
2023-05-03T14:43:35.759Z,20.70
2023-05-03T14:46:02.347Z,20.57
2023-05-03T14:48:28.939Z,20.43
2023-05-03T14:50:56.287Z,20.60
2023-05-03T14:53:23.379Z,20.48
2023-05-03T14:55:50.174Z,20.36
2023-05-03T14:58:16.788Z,20.10
2023-05-03T15:00:43.509Z,20.01
2023-05-03T15:03:12.138Z,19.98
2023-05-03T15:05:43.501Z,19.86
2023-05-03T15:08:10.585Z,19.92
2023-05-03T15:10:39.997Z,19.90
2023-05-03T15:13:06.740Z,20.05
2023-05-03T15:15:33.293Z,20.16
2023-05-03T15:17:59.699Z,20.29
2023-05-03T15:20:26.231Z,20.12
2023-05-03T15:22:52.735Z,20.24
2023-05-03T15:25:19.306Z,20.31
2023-05-03T15:27:45.775Z,20.24
2023-05-03T15:30:14.702Z,20.28
2023-05-03T15:32:41.119Z,20.29
2023-05-03T15:35:07.794Z,20.18
2023-05-03T15:37:38.508Z,19.97
2023-05-03T15:40:06.310Z,19.85
2023-05-03T15:42:32.909Z,19.97
2023-05-03T15:44:59.450Z,19.96
2023-05-03T15:47:26.852Z,20.13
2023-05-03T15:49:53.507Z,20.20
2023-05-03T15:52:19.970Z,20.30
2023-05-03T15:54:46.942Z,20.19
2023-05-03T15:57:13.836Z,20.20
2023-05-03T15:59:40.648Z,20.17
2023-05-03T16:02:07.480Z,20.07
2023-05-03T16:04:34.055Z,20.19
2023-05-03T16:07:00.506Z,20.28
2023-05-03T16:09:28.667Z,20.30
2023-05-03T16:11:54.998Z,20.34
2023-05-03T16:14:22.223Z,20.50
2023-05-03T16:16:49.842Z,20.54
2023-05-03T16:19:16.902Z,20.38
2023-05-03T16:21:43.639Z,20.47
2023-05-03T16:24:10.726Z,20.37
2023-05-03T16:26:37.230Z,20.17
2023-05-03T16:29:04.056Z,20.26
2023-05-03T16:31:31.318Z,20.35
2023-05-03T16:33:57.887Z,20.38
2023-05-03T16:36:24.470Z,20.41
2023-05-03T16:38:50.995Z,20.36
2023-05-03T16:41:17.345Z,20.29
2023-05-03T16:43:43.792Z,20.21
2023-05-03T16:46:10.229Z,19.93
2023-05-03T16:48:36.996Z,19.86
2023-05-03T16:51:03.656Z,19.69
2023-05-03T16:53:31.300Z,19.66
2023-05-03T16:55:57.778Z,19.56
2023-05-03T16:58:24.310Z,19.61
2023-05-03T17:00:51.176Z,19.45
2023-05-03T17:03:18.069Z,19.56
2023-05-03T17:05:44.662Z,19.39
2023-05-03T17:08:12.005Z,19.27
2023-05-03T17:10:39.147Z,19.06
2023-05-03T17:13:06.413Z,18.93
2023-05-03T17:15:33.007Z,18.86
2023-05-03T17:18:01.935Z,18.75
2023-05-03T17:20:30.194Z,18.76
2023-05-03T17:22:56.661Z,18.70
2023-05-03T17:25:23.101Z,18.68
2023-05-03T17:27:51.754Z,18.67
2023-05-03T17:30:21.662Z,18.56
2023-05-03T17:32:48.517Z,18.59
2023-05-03T17:35:15.140Z,18.56
2023-05-03T17:37:41.589Z,18.39
2023-05-03T17:40:08.681Z,18.32
2023-05-03T17:42:35.233Z,18.23
2023-05-03T17:45:02.665Z,18.19
2023-05-03T17:47:29.356Z,18.20
2023-05-03T17:49:56.409Z,18.27
2023-05-03T17:52:22.984Z,18.10
2023-05-03T17:54:52.019Z,18.03
2023-05-03T17:57:20.618Z,18.02
2023-05-03T17:59:48.429Z,17.88
2023-05-03T18:02:14.918Z,17.74
2023-05-03T18:04:41.456Z,17.68
2023-05-03T18:07:08.042Z,17.62
2023-05-03T18:09:34.392Z,17.54
2023-05-03T18:12:03.411Z,17.53
2023-05-03T18:14:30.276Z,17.44
2023-05-03T18:16:56.712Z,17.48
2023-05-03T18:19:23.906Z,17.37
2023-05-03T18:21:50.378Z,17.29
2023-05-03T18:24:16.838Z,17.15
2023-05-03T18:26:43.283Z,17.13
2023-05-03T18:29:09.984Z,17.10
2023-05-03T18:31:36.507Z,17.00
2023-05-03T18:34:03.205Z,16.91
2023-05-03T18:36:29.638Z,16.91
2023-05-03T18:38:56.068Z,16.79
2023-05-03T18:41:24.443Z,16.75
2023-05-03T18:43:52.048Z,16.73
2023-05-03T18:46:19.771Z,16.67
2023-05-03T18:48:47.580Z,16.70
2023-05-03T18:51:14.446Z,16.60
2023-05-03T18:53:41.049Z,16.47
2023-05-03T18:56:07.474Z,16.53
2023-05-03T18:58:33.970Z,16.44
2023-05-03T19:01:00.738Z,16.38
2023-05-03T19:03:29.431Z,16.39
2023-05-03T19:05:59.660Z,16.18
2023-05-03T19:08:26.052Z,16.16
2023-05-03T19:10:52.408Z,16.08
2023-05-03T19:13:19.577Z,16.07
2023-05-03T19:15:46.870Z,16.04
2023-05-03T19:18:15.378Z,15.90
2023-05-03T19:20:43.238Z,15.89
2023-05-03T19:23:09.697Z,15.88
2023-05-03T19:25:36.235Z,15.82
2023-05-03T19:28:04.397Z,15.88
2023-05-03T19:30:30.890Z,15.81
2023-05-03T19:32:57.357Z,15.75
2023-05-03T19:35:23.894Z,15.75
2023-05-03T19:37:50.275Z,15.72
2023-05-03T19:40:16.786Z,15.52
2023-05-03T19:42:43.276Z,15.53
2023-05-03T19:45:09.982Z,15.63
2023-05-03T19:47:36.383Z,15.55
2023-05-03T19:50:03.188Z,15.54
2023-05-03T19:52:29.845Z,15.49
2023-05-03T19:54:57.320Z,15.46
2023-05-03T19:57:23.939Z,15.39
2023-05-03T19:59:50.941Z,15.29
2023-05-03T20:02:18.425Z,15.25
2023-05-03T20:04:44.823Z,15.33
2023-05-03T20:07:11.268Z,15.41
2023-05-03T20:09:37.774Z,15.44
2023-05-03T20:12:04.587Z,15.45
2023-05-03T20:14:32.375Z,15.32
2023-05-03T20:16:59.016Z,15.37
2023-05-03T20:19:25.817Z,15.37
2023-05-03T20:21:52.672Z,15.10
2023-05-03T20:24:20.844Z,15.13
2023-05-03T20:26:47.327Z,15.09
2023-05-03T20:29:13.904Z,14.98
2023-05-03T20:31:40.600Z,14.97
2023-05-03T20:34:07.048Z,14.85
2023-05-03T20:36:33.486Z,14.78
2023-05-03T20:38:59.967Z,14.70
2023-05-03T20:41:26.705Z,14.67
2023-05-03T20:43:54.854Z,14.56
2023-05-03T20:46:21.426Z,14.47
2023-05-03T20:48:47.922Z,14.53
2023-05-03T20:51:14.775Z,14.50
2023-05-03T20:53:41.431Z,14.51
2023-05-03T20:56:08.377Z,14.56
2023-05-03T20:58:35.050Z,14.50
2023-05-03T21:01:04.123Z,14.46
2023-05-03T21:03:31.429Z,14.43
2023-05-03T21:05:57.998Z,14.37
2023-05-03T21:08:24.595Z,14.33
2023-05-03T21:10:51.126Z,14.40
2023-05-03T21:13:17.673Z,14.26
2023-05-03T21:15:44.172Z,14.13
2023-05-03T21:18:11.272Z,14.04
2023-05-03T21:20:38.039Z,13.98
2023-05-03T21:23:05.409Z,13.93
2023-05-03T21:25:31.817Z,13.91
2023-05-03T21:27:58.255Z,13.88
2023-05-03T21:30:24.777Z,13.82
2023-05-03T21:32:51.462Z,13.78
2023-05-03T21:35:18.378Z,13.81
2023-05-03T21:37:46.568Z,13.85
2023-05-03T21:40:15.189Z,13.83
2023-05-03T21:42:42.612Z,13.75
2023-05-03T21:45:10.068Z,13.65
2023-05-03T21:47:36.440Z,13.68
2023-05-03T21:50:05.929Z,13.73
2023-05-03T21:52:33.638Z,13.74
2023-05-03T21:55:00.345Z,13.73
2023-05-03T21:57:26.805Z,13.71
2023-05-03T21:59:56.421Z,13.74
2023-05-03T22:02:23.221Z,13.81
2023-05-03T22:04:50.634Z,13.74
2023-05-03T22:07:17.421Z,13.73
2023-05-03T22:09:50.363Z,13.69
2023-05-03T22:12:23.347Z,13.66
2023-05-03T22:14:51.103Z,13.62
2023-05-03T22:17:17.707Z,13.58
2023-05-03T22:19:44.652Z,13.49
2023-05-03T22:22:11.400Z,13.35
2023-05-03T22:24:38.568Z,13.23
2023-05-03T22:27:04.904Z,13.14
2023-05-03T22:29:31.427Z,13.01
2023-05-03T22:31:58.015Z,13.00
2023-05-03T22:34:24.419Z,12.73
2023-05-03T22:36:50.799Z,12.62
2023-05-03T22:39:17.394Z,12.59
2023-05-03T22:41:44.704Z,12.46
2023-05-03T22:44:11.085Z,12.38
2023-05-03T22:46:37.629Z,12.40
2023-05-03T22:49:04.760Z,12.36
2023-05-03T22:51:32.419Z,12.32
2023-05-03T22:53:58.878Z,12.27
2023-05-03T22:56:25.258Z,12.22
2023-05-03T22:58:51.718Z,12.17
2023-05-03T23:01:18.603Z,12.14
2023-05-03T23:03:45.129Z,12.18
2023-05-03T23:06:11.625Z,12.18
2023-05-03T23:08:38.454Z,12.04
2023-05-03T23:11:05.202Z,12.00
2023-05-03T23:13:31.680Z,11.88
2023-05-03T23:15:58.672Z,11.82
2023-05-03T23:18:25.034Z,11.73
2023-05-03T23:20:52.450Z,11.60
2023-05-03T23:23:19.571Z,11.63
2023-05-03T23:25:46.511Z,11.52
2023-05-03T23:28:13.133Z,11.48
2023-05-03T23:30:44.006Z,11.49
2023-05-03T23:33:11.409Z,11.42
2023-05-03T23:35:38.501Z,11.40
2023-05-03T23:38:05.100Z,11.36
2023-05-03T23:40:31.535Z,11.22
2023-05-03T23:42:58.060Z,11.14
2023-05-03T23:45:24.634Z,11.18
2023-05-03T23:47:51.062Z,11.10
2023-05-03T23:50:17.645Z,11.04
2023-05-03T23:52:44.041Z,10.87
2023-05-03T23:55:10.741Z,10.79
2023-05-03T23:57:38.714Z,10.77
